createdAt,value
2018-10-19T00:00:59.347Z,13.47
2018-10-19T00:03:27.645Z,14.37
2018-10-19T00:05:55.803Z,16.30
2018-10-19T00:08:24.006Z,15.00
2018-10-19T00:10:52.314Z,15.67
2018-10-19T00:13:20.490Z,13.37
2018-10-19T00:15:48.708Z,16.87
2018-10-19T00:18:16.955Z,14.80
2018-10-19T00:20:45.355Z,17.07
2018-10-19T00:23:13.746Z,20.73
2018-10-19T00:25:41.896Z,15.93
2018-10-19T00:28:10.143Z,16.03
2018-10-19T00:30:38.324Z,15.07
2018-10-19T00:33:06.504Z,16.43
2018-10-19T00:35:34.688Z,17.93
2018-10-19T00:38:02.983Z,14.00
2018-10-19T00:40:31.647Z,16.97
2018-10-19T00:42:59.948Z,17.07
2018-10-19T00:45:33.331Z,14.97
2018-10-19T00:48:08.687Z,16.93
2018-10-19T00:50:36.940Z,17.43
2018-10-19T00:53:05.724Z,17.20
2018-10-19T00:55:33.923Z,14.57
2018-10-19T00:58:02.315Z,17.80
2018-10-19T01:00:30.596Z,16.87
2018-10-19T01:02:58.862Z,17.30
2018-10-19T01:05:27.081Z,18.03
2018-10-19T01:07:55.484Z,17.00
2018-10-19T01:10:24.077Z,17.40
2018-10-19T01:12:54.890Z,17.90
2018-10-19T01:15:23.103Z,15.33
2018-10-19T01:17:51.643Z,15.87
2018-10-19T01:20:19.910Z,19.60
2018-10-19T01:22:48.115Z,20.43
2018-10-19T01:25:16.314Z,19.23
2018-10-19T01:27:44.499Z,17.03
2018-10-19T01:30:12.699Z,21.23
2018-10-19T01:32:40.940Z,22.77
2018-10-19T01:35:10.976Z,21.63
2018-10-19T01:37:39.111Z,21.93
2018-10-19T01:40:09.286Z,21.70
2018-10-19T01:42:37.808Z,25.50
2018-10-19T01:45:06.953Z,17.20
2018-10-19T01:47:35.130Z,24.73
2018-10-19T01:50:03.392Z,23.27
2018-10-19T01:52:31.575Z,21.23
2018-10-19T01:54:59.798Z,24.23
2018-10-19T01:57:27.971Z,22.40
2018-10-19T01:59:56.127Z,25.20
2018-10-19T02:02:24.315Z,24.10
2018-10-19T02:04:52.477Z,26.47
2018-10-19T02:07:20.654Z,22.30
2018-10-19T02:09:48.827Z,24.57
2018-10-19T02:12:17.042Z,22.30
2018-10-19T02:14:45.207Z,21.60
2018-10-19T02:17:13.684Z,23.27
2018-10-19T02:19:41.823Z,24.23
2018-10-19T02:22:10.136Z,21.87
2018-10-19T02:24:38.314Z,23.73
2018-10-19T02:27:06.964Z,22.70
2018-10-19T02:29:35.195Z,27.53
2018-10-19T02:32:03.384Z,27.50
2018-10-19T02:34:31.568Z,20.70
2018-10-19T02:36:59.740Z,26.47
2018-10-19T02:39:27.900Z,23.77
2018-10-19T02:41:56.146Z,20.03
2018-10-19T02:44:24.317Z,24.00
2018-10-19T02:46:52.500Z,22.53
2018-10-19T02:49:20.654Z,23.93
2018-10-19T02:51:48.812Z,27.20
2018-10-19T02:54:16.983Z,22.90
2018-10-19T02:56:45.233Z,20.87
2018-10-19T02:59:13.555Z,20.90
2018-10-19T03:01:41.675Z,22.17
2018-10-19T03:04:09.867Z,21.37
2018-10-19T03:06:38.100Z,22.37
2018-10-19T03:09:09.214Z,23.47
2018-10-19T03:11:37.373Z,22.77
2018-10-19T03:14:05.510Z,18.13
2018-10-19T03:16:33.654Z,23.10
2018-10-19T03:19:01.831Z,21.10
2018-10-19T03:21:30.024Z,23.33
2018-10-19T03:23:58.275Z,21.87
2018-10-19T03:26:26.508Z,23.07
2018-10-19T03:28:54.689Z,25.20
2018-10-19T03:31:22.882Z,22.77
2018-10-19T03:33:51.047Z,21.47
2018-10-19T03:36:19.261Z,18.90
2018-10-19T03:38:47.488Z,20.03
2018-10-19T03:41:15.697Z,25.63
2018-10-19T03:43:43.867Z,23.47
2018-10-19T03:46:12.063Z,21.97
2018-10-19T03:48:40.648Z,20.37
2018-10-19T03:51:08.901Z,24.27
2018-10-19T03:53:37.072Z,20.03
2018-10-19T03:56:05.258Z,24.40
2018-10-19T03:58:33.424Z,21.40
2018-10-19T04:01:01.622Z,19.20
2018-10-19T04:03:29.840Z,18.63
2018-10-19T04:05:57.960Z,21.07
2018-10-19T04:08:26.207Z,20.67
2018-10-19T04:10:54.439Z,19.97
2018-10-19T04:13:22.609Z,19.70
2018-10-19T04:15:50.767Z,21.13
2018-10-19T04:18:19.027Z,21.20
2018-10-19T04:20:47.181Z,20.27
2018-10-19T04:23:15.401Z,20.30
2018-10-19T04:25:43.524Z,20.90
2018-10-19T04:28:11.717Z,23.07
2018-10-19T04:30:39.930Z,21.37
2018-10-19T04:33:08.187Z,19.80
2018-10-19T04:35:36.403Z,25.47
2018-10-19T04:38:04.639Z,22.63
2018-10-19T04:40:32.857Z,21.17
2018-10-19T04:43:04.178Z,20.07
2018-10-19T04:45:32.422Z,24.60
2018-10-19T04:48:00.646Z,21.33
2018-10-19T04:50:28.816Z,23.00
2018-10-19T04:52:57.104Z,21.17
2018-10-19T04:55:25.264Z,25.40
2018-10-19T04:57:53.456Z,22.17
2018-10-19T05:00:22.071Z,27.20
2018-10-19T05:02:51.208Z,24.67
2018-10-19T05:05:19.654Z,22.47
2018-10-19T05:07:47.650Z,21.20
2018-10-19T05:10:15.868Z,26.13
2018-10-19T05:12:44.056Z,25.13
2018-10-19T05:15:12.584Z,24.10
2018-10-19T05:17:40.770Z,22.60
2018-10-19T05:20:10.782Z,23.93
2018-10-19T05:22:39.059Z,22.50
2018-10-19T05:25:09.260Z,20.43
2018-10-19T05:27:37.467Z,20.80
2018-10-19T05:30:07.120Z,25.20
2018-10-19T05:32:35.324Z,21.60
2018-10-19T05:35:03.655Z,23.70
2018-10-19T05:37:32.404Z,22.57
2018-10-19T05:40:01.380Z,20.60
2018-10-19T05:42:29.567Z,20.97
2018-10-19T05:44:57.758Z,18.13
2018-10-19T05:47:25.974Z,21.60
2018-10-19T05:49:54.335Z,22.57
2018-10-19T05:52:22.511Z,22.77
2018-10-19T05:54:50.913Z,20.40
2018-10-19T05:57:19.071Z,23.50
2018-10-19T05:59:47.256Z,20.83
2018-10-19T06:02:15.621Z,22.93
2018-10-19T06:04:43.669Z,19.17
2018-10-19T06:07:11.828Z,21.70
2018-10-19T06:09:40.012Z,19.43
2018-10-19T06:12:08.338Z,20.10
2018-10-19T06:14:36.554Z,18.80
2018-10-19T06:17:05.117Z,19.00
2018-10-19T06:19:33.207Z,19.20
2018-10-19T06:22:07.763Z,20.73
2018-10-19T06:24:35.975Z,22.10
2018-10-19T06:27:04.171Z,20.90
2018-10-19T06:29:32.334Z,23.10
2018-10-19T06:32:00.493Z,26.10
2018-10-19T06:34:28.673Z,16.23
2018-10-19T06:36:56.883Z,22.63
2018-10-19T06:39:25.068Z,18.53
2018-10-19T06:41:53.260Z,20.93
2018-10-19T06:44:21.519Z,18.90
2018-10-19T06:46:49.741Z,21.57
2018-10-19T06:49:17.886Z,22.13
2018-10-19T06:51:46.083Z,20.23
2018-10-19T06:54:14.267Z,19.43
2018-10-19T06:56:42.508Z,17.20
2018-10-19T06:59:10.826Z,19.43
2018-10-19T07:01:38.839Z,22.33
2018-10-19T07:04:07.050Z,19.07
2018-10-19T07:06:35.220Z,20.57
2018-10-19T07:09:04.436Z,18.83
2018-10-19T07:11:32.637Z,19.00
2018-10-19T07:14:00.905Z,24.03
2018-10-19T07:16:28.992Z,20.83
2018-10-19T07:18:57.233Z,18.83
2018-10-19T07:21:25.347Z,18.43
2018-10-19T07:23:53.790Z,19.87
2018-10-19T07:26:22.336Z,17.83
2018-10-19T07:28:50.558Z,18.53
2018-10-19T07:31:18.795Z,15.77
2018-10-19T07:33:46.962Z,22.00
2018-10-19T07:36:15.182Z,16.47
2018-10-19T07:38:43.416Z,17.03
2018-10-19T07:41:11.668Z,19.67
2018-10-19T07:43:39.798Z,14.23
2018-10-19T07:46:07.962Z,17.33
2018-10-19T07:48:36.375Z,19.77
2018-10-19T07:51:04.519Z,21.33
2018-10-19T07:53:32.711Z,19.23
2018-10-19T07:56:01.039Z,19.83
2018-10-19T07:58:31.014Z,21.13
2018-10-19T08:00:59.268Z,21.27
2018-10-19T08:03:27.435Z,17.83
2018-10-19T08:05:55.615Z,18.50
2018-10-19T08:08:23.892Z,19.87
2018-10-19T08:10:52.277Z,20.17
2018-10-19T08:13:20.536Z,23.73
2018-10-19T08:15:48.686Z,19.03
2018-10-19T08:18:16.874Z,21.40
2018-10-19T08:20:45.079Z,20.83
2018-10-19T08:23:13.508Z,23.63
2018-10-19T08:25:41.683Z,21.93
2018-10-19T08:28:09.891Z,23.33
2018-10-19T08:30:38.126Z,20.43
2018-10-19T08:33:06.475Z,20.63
2018-10-19T08:35:34.685Z,21.50
2018-10-19T08:38:02.935Z,20.27
2018-10-19T08:40:31.565Z,21.10
2018-10-19T08:42:59.819Z,22.27
2018-10-19T08:45:28.034Z,18.67
2018-10-19T08:47:56.218Z,18.40
2018-10-19T08:50:24.423Z,24.17
2018-10-19T08:52:53.143Z,19.50
2018-10-19T08:55:21.427Z,20.20
2018-10-19T08:57:49.735Z,25.47
2018-10-19T09:00:17.991Z,25.33
2018-10-19T09:02:46.130Z,22.00
2018-10-19T09:05:14.569Z,22.33
2018-10-19T09:07:49.031Z,24.00
2018-10-19T09:10:17.265Z,27.47
2018-10-19T09:12:45.601Z,27.57
2018-10-19T09:15:13.823Z,23.30
2018-10-19T09:17:41.969Z,20.83
2018-10-19T09:20:11.148Z,22.87
2018-10-19T09:22:39.391Z,26.63
2018-10-19T09:25:07.601Z,26.07
2018-10-19T09:27:35.883Z,26.80
2018-10-19T09:30:04.321Z,29.50
2018-10-19T09:32:32.490Z,28.17
2018-10-19T09:35:00.723Z,30.93
2018-10-19T09:37:28.926Z,20.60
2018-10-19T09:39:57.143Z,19.03
2018-10-19T09:42:25.343Z,25.03
2018-10-19T09:44:53.660Z,24.77
2018-10-19T09:47:21.906Z,26.33
2018-10-19T09:49:50.087Z,21.57
2018-10-19T09:52:18.289Z,25.33
2018-10-19T09:54:46.519Z,38.93
2018-10-19T09:57:14.822Z,24.97
2018-10-19T09:59:42.887Z,21.33
2018-10-19T10:02:11.169Z,24.10
2018-10-19T10:04:39.307Z,20.33
2018-10-19T10:07:07.597Z,30.73
2018-10-19T10:09:35.832Z,20.77
2018-10-19T10:12:04.117Z,67.50
2018-10-19T10:14:32.290Z,29.90
2018-10-19T10:17:00.533Z,28.00
2018-10-19T10:19:28.679Z,23.13
2018-10-19T10:21:56.930Z,19.47
2018-10-19T10:24:25.074Z,24.23
2018-10-19T10:26:53.323Z,23.00
2018-10-19T10:29:21.607Z,21.47
2018-10-19T10:31:49.804Z,22.43
2018-10-19T10:34:18.195Z,19.93
2018-10-19T10:36:46.304Z,23.83
2018-10-19T10:39:14.931Z,19.13
2018-10-19T10:41:42.957Z,20.70
2018-10-19T10:44:11.131Z,19.87
2018-10-19T10:46:39.481Z,20.77
2018-10-19T10:49:07.733Z,19.03
2018-10-19T10:51:35.884Z,22.90
2018-10-19T10:54:04.138Z,20.20
2018-10-19T10:56:32.336Z,22.90
2018-10-19T10:59:00.571Z,24.90
2018-10-19T11:01:28.750Z,21.40
2018-10-19T11:04:00.039Z,23.37
2018-10-19T11:06:28.248Z,23.10
2018-10-19T11:08:56.436Z,28.50
2018-10-19T11:11:24.644Z,22.33
2018-10-19T11:13:52.835Z,20.97
2018-10-19T11:16:21.025Z,25.73
2018-10-19T11:18:49.183Z,22.57
2018-10-19T11:21:17.439Z,22.83
2018-10-19T11:23:45.612Z,22.00
2018-10-19T11:26:13.820Z,24.80
2018-10-19T11:28:41.991Z,27.47
2018-10-19T11:31:10.281Z,25.97
2018-10-19T11:33:38.462Z,27.50
2018-10-19T11:36:06.651Z,25.80
2018-10-19T11:38:34.838Z,26.60
2018-10-19T11:41:02.999Z,24.63
2018-10-19T11:43:31.263Z,27.53
2018-10-19T11:45:59.494Z,27.47
2018-10-19T11:48:27.720Z,25.73
2018-10-19T11:50:55.891Z,25.57
2018-10-19T11:53:24.077Z,24.73
2018-10-19T11:55:52.331Z,29.43
2018-10-19T11:58:20.511Z,29.13
2018-10-19T12:00:48.744Z,29.43
2018-10-19T12:03:16.955Z,24.77
2018-10-19T12:05:45.124Z,27.03
2018-10-19T12:08:13.360Z,23.23
2018-10-19T12:10:48.405Z,21.80
2018-10-19T12:13:16.670Z,21.67
2018-10-19T12:15:44.769Z,25.20
2018-10-19T12:18:12.979Z,25.20
2018-10-19T12:20:41.221Z,21.73
2018-10-19T12:23:09.448Z,22.23
2018-10-19T12:25:37.665Z,23.27
2018-10-19T12:28:05.831Z,23.00
2018-10-19T12:30:34.044Z,22.53
2018-10-19T12:33:02.294Z,23.90
2018-10-19T12:35:30.489Z,25.30
2018-10-19T12:37:58.615Z,19.57
2018-10-19T12:40:27.402Z,20.20
2018-10-19T12:42:55.609Z,23.70
2018-10-19T12:46:36.092Z,25.07
2018-10-19T12:49:04.928Z,19.57
2018-10-19T12:51:33.277Z,21.47
2018-10-19T12:54:01.597Z,20.00
2018-10-19T12:56:29.786Z,21.40
2018-10-19T12:58:58.051Z,21.67
2018-10-19T13:01:27.479Z,21.43
2018-10-19T13:03:55.711Z,19.90
2018-10-19T13:06:23.911Z,19.13
2018-10-19T13:08:52.592Z,20.37
2018-10-19T13:11:20.852Z,21.17
2018-10-19T13:13:49.137Z,18.27
2018-10-19T13:16:17.377Z,17.70
2018-10-19T13:18:45.565Z,20.70
2018-10-19T13:21:13.813Z,19.77
2018-10-19T13:23:42.031Z,21.87
2018-10-19T13:26:10.174Z,18.83
2018-10-19T13:28:38.476Z,22.87
2018-10-19T13:31:06.690Z,19.57
2018-10-19T13:33:34.917Z,19.27
2018-10-19T13:36:03.186Z,18.20
2018-10-19T13:38:31.371Z,19.43
2018-10-19T13:40:59.559Z,18.60
2018-10-19T13:43:27.777Z,19.33
2018-10-19T13:45:56.045Z,15.27
2018-10-19T13:48:24.448Z,18.43
2018-10-19T13:50:52.732Z,16.27
2018-10-19T13:53:20.959Z,19.70
2018-10-19T13:55:49.183Z,17.60
2018-10-19T13:58:17.456Z,15.07
2018-10-19T14:00:45.609Z,16.33
2018-10-19T14:03:13.882Z,16.57
2018-10-19T14:05:42.320Z,17.37
2018-10-19T14:08:10.286Z,16.00
2018-10-19T14:10:38.520Z,16.43
2018-10-19T14:13:06.988Z,16.37
2018-10-19T14:15:35.972Z,17.73
2018-10-19T14:18:05.472Z,15.93
2018-10-19T14:20:33.702Z,17.43
2018-10-19T14:23:01.982Z,17.77
2018-10-19T14:25:30.602Z,14.77
2018-10-19T14:27:58.759Z,16.57
2018-10-19T14:30:26.961Z,18.83
2018-10-19T14:32:55.230Z,16.03
2018-10-19T14:35:23.384Z,16.03
2018-10-19T14:37:51.543Z,19.87
2018-10-19T14:40:20.707Z,18.30
2018-10-19T14:42:49.045Z,15.73
2018-10-19T14:45:17.845Z,16.00
2018-10-19T14:47:46.836Z,17.17
2018-10-19T14:50:16.258Z,17.83
2018-10-19T14:52:44.426Z,52.17
2018-10-19T14:55:15.249Z,18.17
2018-10-19T14:57:43.491Z,14.20
2018-10-19T15:00:13.352Z,19.90
2018-10-19T15:02:41.634Z,26.73
2018-10-19T15:05:11.616Z,21.33
2018-10-19T15:07:40.002Z,17.70
2018-10-19T15:10:11.661Z,21.27
2018-10-19T15:12:40.047Z,17.10
2018-10-19T15:15:09.506Z,17.13
2018-10-19T15:17:37.649Z,15.10
2018-10-19T15:20:06.444Z,17.57
2018-10-19T15:22:35.395Z,17.97
2018-10-19T15:25:03.615Z,14.13
2018-10-19T15:27:31.928Z,15.63
2018-10-19T15:30:00.268Z,14.17
2018-10-19T15:32:28.418Z,16.73
2018-10-19T15:34:56.627Z,16.10
2018-10-19T15:37:25.152Z,18.77
2018-10-19T15:39:53.395Z,17.43
2018-10-19T15:42:21.567Z,19.50
2018-10-19T15:44:50.487Z,16.37
2018-10-19T15:47:18.760Z,16.67
2018-10-19T15:49:46.985Z,17.00
2018-10-19T15:52:15.325Z,19.30
2018-10-19T15:54:43.571Z,19.20
2018-10-19T15:57:11.755Z,19.73
2018-10-19T15:59:39.931Z,20.13
2018-10-19T16:02:08.111Z,25.60
2018-10-19T16:04:36.275Z,22.33
2018-10-19T16:07:04.493Z,19.73
2018-10-19T16:09:32.675Z,25.33
2018-10-19T16:12:00.873Z,20.90
2018-10-19T16:14:29.026Z,20.07
2018-10-19T16:16:57.194Z,20.60
2018-10-19T16:19:25.379Z,24.93
2018-10-19T16:21:53.659Z,21.37
2018-10-19T16:24:21.859Z,21.70
2018-10-19T16:26:50.063Z,21.90
2018-10-19T16:29:18.251Z,19.57
2018-10-19T16:31:46.420Z,16.83
2018-10-19T16:34:14.630Z,21.07
2018-10-19T16:36:42.928Z,20.97
2018-10-19T16:39:11.557Z,21.73
2018-10-19T16:41:39.818Z,21.17
2018-10-19T16:44:07.978Z,21.37
2018-10-19T16:46:36.171Z,22.03
2018-10-19T16:49:04.351Z,21.37
2018-10-19T16:51:32.576Z,20.67
2018-10-19T16:54:00.770Z,22.70
2018-10-19T16:56:28.985Z,28.27
2018-10-19T16:58:57.162Z,24.13
2018-10-19T17:01:25.625Z,21.93
2018-10-19T17:03:53.853Z,22.93
2018-10-19T17:06:22.007Z,24.63
2018-10-19T17:08:50.181Z,20.83
2018-10-19T17:11:18.419Z,21.17
2018-10-19T17:13:46.622Z,22.93
2018-10-19T17:16:14.785Z,23.63
2018-10-19T17:18:43.092Z,21.93
2018-10-19T17:21:11.372Z,22.97
2018-10-19T17:23:39.526Z,22.07
2018-10-19T17:26:08.193Z,19.53
2018-10-19T17:28:37.009Z,27.07
2018-10-19T17:31:05.695Z,25.13
2018-10-19T17:33:33.930Z,21.60
2018-10-19T17:36:02.598Z,23.03
2018-10-19T17:38:30.834Z,24.07
2018-10-19T17:40:59.158Z,24.63
2018-10-19T17:43:27.477Z,21.90
2018-10-19T17:45:55.654Z,23.87
2018-10-19T17:48:23.958Z,24.57
2018-10-19T17:50:52.271Z,24.70
2018-10-19T17:53:20.634Z,23.90
2018-10-19T17:55:49.785Z,23.93
2018-10-19T17:58:18.020Z,20.87
2018-10-19T18:00:46.397Z,25.23
2018-10-19T18:03:14.665Z,21.57
2018-10-19T18:05:42.893Z,26.43
2018-10-19T18:08:11.087Z,25.37
2018-10-19T18:10:39.272Z,25.07
2018-10-19T18:13:07.551Z,23.40
2018-10-19T18:15:36.079Z,24.17
2018-10-19T18:18:04.228Z,27.57
2018-10-19T18:20:32.448Z,25.37
2018-10-19T18:23:00.798Z,26.50
2018-10-19T18:25:28.928Z,27.20
2018-10-19T18:27:57.427Z,22.00
2018-10-19T18:30:25.646Z,27.60
2018-10-19T18:32:53.835Z,22.97
2018-10-19T18:35:22.106Z,23.50
2018-10-19T18:37:50.330Z,23.57
2018-10-19T18:40:19.008Z,20.43
2018-10-19T18:42:47.323Z,25.57
2018-10-19T18:45:15.767Z,25.83
2018-10-19T18:47:44.047Z,26.87
2018-10-19T18:50:14.595Z,27.47
2018-10-19T18:52:43.318Z,24.17
2018-10-19T18:55:12.498Z,27.57
2018-10-19T18:57:40.683Z,24.07
2018-10-19T19:00:10.208Z,27.63
2018-10-19T19:02:38.386Z,25.03
2018-10-19T19:05:06.623Z,24.17
2018-10-19T19:07:34.754Z,25.87
2018-10-19T19:10:08.245Z,23.47
2018-10-19T19:12:36.522Z,24.63
2018-10-19T19:15:05.367Z,24.80
2018-10-19T19:17:33.603Z,23.77
2018-10-19T19:20:07.768Z,21.60
2018-10-19T19:22:36.727Z,23.23
2018-10-19T19:25:10.429Z,22.93
2018-10-19T19:27:38.891Z,23.03
2018-10-19T19:30:07.812Z,23.97
2018-10-19T19:32:35.987Z,26.10
2018-10-19T19:35:04.548Z,24.27
2018-10-19T19:37:33.071Z,27.27
2018-10-19T19:40:01.551Z,23.40
2018-10-19T19:42:36.543Z,25.20
2018-10-19T19:45:05.076Z,26.27
2018-10-19T19:47:38.532Z,24.70
2018-10-19T19:50:06.769Z,27.47
2018-10-19T19:52:34.991Z,29.13
2018-10-19T19:55:03.386Z,29.73
2018-10-19T19:57:31.559Z,30.47
2018-10-19T19:59:59.726Z,30.60
2018-10-19T20:02:27.935Z,31.37
2018-10-19T20:04:56.147Z,29.07
2018-10-19T20:07:24.283Z,29.40
2018-10-19T20:09:52.447Z,30.77
2018-10-19T20:12:20.667Z,29.43
2018-10-19T20:14:48.848Z,30.40
2018-10-19T20:17:17.030Z,29.80
2018-10-19T20:19:45.214Z,31.20
2018-10-19T20:22:13.379Z,31.63
2018-10-19T20:24:41.608Z,34.03
2018-10-19T20:27:09.804Z,28.93
2018-10-19T20:29:38.003Z,36.03
2018-10-19T20:32:06.266Z,35.10
2018-10-19T20:34:34.377Z,34.80
2018-10-19T20:37:04.539Z,37.33
2018-10-19T20:39:32.853Z,35.70
2018-10-19T20:42:01.741Z,38.27
2018-10-19T20:44:30.032Z,37.50
2018-10-19T20:46:59.033Z,36.90
2018-10-19T20:49:27.393Z,39.20
2018-10-19T20:51:55.574Z,40.77
2018-10-19T20:54:23.744Z,41.93
2018-10-19T20:56:51.950Z,40.30
2018-10-19T20:59:20.127Z,38.47
2018-10-19T21:01:48.321Z,38.63
2018-10-19T21:04:16.504Z,41.70
2018-10-19T21:06:44.667Z,40.97
2018-10-19T21:09:12.850Z,39.50
2018-10-19T21:11:41.011Z,37.30
2018-10-19T21:14:09.291Z,39.93
2018-10-19T21:16:37.378Z,33.97
2018-10-19T21:19:05.781Z,34.23
2018-10-19T21:21:34.735Z,33.27
2018-10-19T21:24:03.200Z,37.53
2018-10-19T21:26:31.986Z,36.17
2018-10-19T21:29:00.492Z,35.53
2018-10-19T21:31:29.160Z,29.33
2018-10-19T21:33:57.328Z,34.87
2018-10-19T21:36:25.761Z,33.90
2018-10-19T21:38:54.073Z,31.50
2018-10-19T21:41:22.235Z,32.87
2018-10-19T21:43:50.469Z,38.73
2018-10-19T21:46:18.799Z,34.83
2018-10-19T21:48:47.100Z,33.30
2018-10-19T21:51:15.546Z,33.47
2018-10-19T21:53:43.820Z,30.23
2018-10-19T21:56:12.132Z,32.10
2018-10-19T21:58:40.252Z,31.63
2018-10-19T22:01:08.426Z,29.90
2018-10-19T22:03:36.655Z,31.47
2018-10-19T22:06:04.883Z,28.60
2018-10-19T22:08:33.362Z,27.63
2018-10-19T22:11:01.483Z,29.37
2018-10-19T22:13:29.736Z,30.13
2018-10-19T22:15:58.056Z,29.07
2018-10-19T22:18:28.308Z,26.90
2018-10-19T22:20:56.557Z,30.30
2018-10-19T22:23:25.167Z,28.63
2018-10-19T22:25:53.518Z,24.37
2018-10-19T22:28:21.698Z,26.80
2018-10-19T22:30:50.104Z,25.80
2018-10-19T22:33:18.831Z,25.00
2018-10-19T22:35:47.234Z,27.23
2018-10-19T22:38:15.478Z,26.80
2018-10-19T22:40:43.636Z,25.70
2018-10-19T22:43:11.996Z,29.63
2018-10-19T22:45:40.135Z,23.37
2018-10-19T22:48:08.373Z,27.63
2018-10-19T22:50:36.801Z,22.87
2018-10-19T22:53:05.311Z,23.80
2018-10-19T22:55:33.439Z,26.37
2018-10-19T22:58:03.457Z,26.10
2018-10-19T23:00:31.874Z,24.77
2018-10-19T23:20:03.939Z,64.37
2018-10-19T23:22:32.087Z,36.17
2018-10-19T23:25:00.325Z,42.37
2018-10-19T23:27:28.492Z,26.63
2018-10-19T23:29:56.690Z,27.93
2018-10-19T23:32:31.595Z,24.60
2018-10-19T23:34:59.820Z,29.00
2018-10-19T23:37:28.144Z,27.57
2018-10-19T23:39:56.309Z,24.60
2018-10-19T23:42:24.494Z,24.80
2018-10-19T23:44:52.650Z,23.37
2018-10-19T23:47:21.715Z,22.37
2018-10-19T23:49:49.891Z,20.90
2018-10-19T23:52:18.166Z,27.90
2018-10-19T23:54:46.459Z,27.03
2018-10-19T23:57:14.642Z,25.87
2018-10-19T23:59:42.871Z,25.67
